Hurlburt Field
KHRT : now visible

Airfield :











YOU CAN JOIN US ON...

 
LOGIN :

Register | Disclaimer

   EN    FR    IT 

 









Legend :    VFR   Marginal VFR   IFR   Intensive IFR   Very Intensive IFR
Visi :
Ceiling :
>= 8 km
>= 3000ft
5 to 8 km
1000 to 3000 ft
1500m to 5 km
500 to 1000 ft
800 to 1500m
200 to 500 ft
< 800m
< 200 ft
Symbols :   Thunderstorms  Fog  Heavy snow  Heavy precipitations  Wind > 20 kt






- Airport Elevation : 38 ft


KHRT - Hurlburt Field

CURRENT METAR :
  • 141956Z 24007KT 10SM FEW020 17/11 A2986 RMK AO2A SLP113 T01700106 $

EXPIRED METARs :
  • 141856Z 21009KT 10SM CLR 17/11 A2986 RMK AO2A SLP113 T01680106 $
  • 141756Z 32006KT 10SM CLR 17/09 A2988 RMK AO2A SLP120 T01690091 10169 20093 58002 $

TAF TAF KHRT
Valid from the 14 at 18:00 until the 16 at 00:00 UTC


141800Z 1418/1524 32009KT 9999 SKC QNH2988INS
BECMG 1506/1507 VRB06KT 9999 SCT010 QNH2999INS
TEMPO 1506/1512 9000 BR BKN010
BECMG 1516/1517 17012KT 9999 FEW250 QNH3001INS TX18/1420Z TN09/1513Z



MET'MAP, your aeronautical weather chart ! - Copyright ORBIFLY December 2007 - Disclaimer

ORBIFLY MET'MAP TEAM :

Programming & Development : Alexandra Zaïnal
Concept & original design : Baudouin d'Aumeries
Assistance for programming : Marc-Olivier Méhu
Technical & hardware support : Manuel Goepfert

Contact : metmap@orbifly.com




SOURCES & CREDITS :

   NOAA       Earth
Advisory